createdAt,value
2017-11-08T00:01:05.041Z,101579.73
2017-11-08T00:03:32.597Z,101582.84
2017-11-08T00:06:00.083Z,101587.69
2017-11-08T00:08:27.618Z,101586.03
2017-11-08T00:10:55.119Z,101584.66
2017-11-08T00:13:22.609Z,101586.31
2017-11-08T00:15:51.935Z,101583.62
2017-11-08T00:18:19.489Z,101579.30
2017-11-08T00:20:46.982Z,101577.63
2017-11-08T00:23:14.472Z,101581.81
2017-11-08T00:25:42.001Z,101571.65
2017-11-08T00:28:09.520Z,101574.94
2017-11-08T00:30:37.017Z,101574.42
2017-11-08T00:33:04.537Z,101567.95
2017-11-08T00:35:32.017Z,101575.86
2017-11-08T00:37:59.577Z,101580.11
2017-11-08T00:40:27.119Z,101573.16
2017-11-08T00:42:54.603Z,101581.73
2017-11-08T00:45:22.097Z,101573.78
2017-11-08T00:47:49.630Z,101574.71
2017-11-08T00:50:17.124Z,101575.05
2017-11-08T00:52:44.613Z,101566.37
2017-11-08T00:55:12.153Z,101568.23
2017-11-08T00:57:45.272Z,101553.72
2017-11-08T01:00:15.304Z,101550.22
2017-11-08T01:02:42.795Z,101554.34
2017-11-08T01:05:10.285Z,101552.13
2017-11-08T01:07:37.943Z,101540.75
2017-11-08T01:10:05.435Z,101553.16
2017-11-08T01:12:32.925Z,101547.33
2017-11-08T01:15:00.464Z,101552.95
2017-11-08T01:17:27.960Z,101545.97
2017-11-08T01:19:55.452Z,101551.64
2017-11-08T01:22:22.968Z,101548.53
2017-11-08T01:24:50.461Z,101543.52
2017-11-08T01:27:18.009Z,101544.48
2017-11-08T01:29:45.507Z,101530.01
2017-11-08T01:32:13.003Z,101527.83
2017-11-08T01:34:40.531Z,101530.94
2017-11-08T01:37:13.748Z,101526.34
2017-11-08T01:39:41.263Z,101522.34
2017-11-08T01:42:10.582Z,101527.17
2017-11-08T01:44:43.848Z,101526.34
2017-11-08T01:47:11.390Z,101527.38
2017-11-08T01:49:38.888Z,101528.17
2017-11-08T01:52:23.048Z,101519.64
2017-11-08T01:54:50.532Z,101511.07
2017-11-08T01:57:18.023Z,101508.69
2017-11-08T01:59:45.547Z,101516.62
2017-11-08T02:02:13.039Z,101517.66
2017-11-08T02:04:40.583Z,101512.20
2017-11-08T02:07:08.143Z,101514.03
2017-11-08T02:09:35.637Z,101505.46
2017-11-08T02:12:03.262Z,101500.17
2017-11-08T02:14:30.753Z,101498.21
2017-11-08T02:16:58.240Z,101492.78
2017-11-08T02:19:25.785Z,101490.27
2017-11-08T02:21:53.275Z,101484.49
2017-11-08T02:24:20.767Z,101482.69
2017-11-08T02:29:44.516Z,101493.05
2017-11-08T02:32:14.990Z,101495.19
2017-11-08T02:34:42.488Z,101502.70
2017-11-08T02:37:09.992Z,101498.01
2017-11-08T02:39:37.500Z,101508.12
2017-11-08T02:42:05.727Z,101500.56
2017-11-08T02:44:33.219Z,101496.69
2017-11-08T02:47:00.856Z,101497.00
2017-11-08T02:49:28.343Z,101489.20
2017-11-08T02:51:55.856Z,101491.16
2017-11-08T02:54:24.164Z,101489.05
2017-11-08T02:56:51.683Z,101488.42
2017-11-08T02:59:19.248Z,101480.10
2017-11-08T03:01:46.800Z,101488.42
2017-11-08T03:04:14.291Z,101483.52
2017-11-08T03:06:41.788Z,101477.97
2017-11-08T03:09:09.326Z,101485.48
2017-11-08T03:11:36.817Z,101490.07
2017-11-08T03:14:04.320Z,101487.30
2017-11-08T03:16:31.836Z,101489.83
2017-11-08T03:18:59.328Z,101489.58
2017-11-08T03:21:26.817Z,101489.58
2017-11-08T03:23:54.411Z,101483.47
2017-11-08T03:26:21.907Z,101489.92
2017-11-08T03:28:49.437Z,101497.66
2017-11-08T03:31:16.929Z,101493.47
2017-11-08T03:33:44.492Z,101501.50
2017-11-08T03:36:12.149Z,101502.95
2017-11-08T03:38:39.643Z,101499.39
2017-11-08T03:41:07.166Z,101502.60
2017-11-08T03:43:34.690Z,101508.89
2017-11-08T03:46:02.261Z,101495.89
2017-11-08T03:48:29.772Z,101495.97
2017-11-08T03:50:57.264Z,101504.41
2017-11-08T03:53:24.843Z,101502.20
2017-11-08T03:55:52.340Z,101504.08
2017-11-08T03:58:19.831Z,101509.44
2017-11-08T04:00:47.355Z,101511.91
2017-11-08T04:03:14.892Z,101502.98
2017-11-08T04:05:42.391Z,101515.52
2017-11-08T04:08:09.889Z,101506.17
2017-11-08T04:10:37.438Z,101506.65
2017-11-08T04:13:04.941Z,101512.97
2017-11-08T04:15:32.431Z,101507.03
2017-11-08T04:18:00.008Z,101510.24
2017-11-08T04:20:27.496Z,101511.91
2017-11-08T04:22:54.985Z,101508.62
2017-11-08T04:25:22.561Z,101503.81
2017-11-08T04:27:50.053Z,101509.03
2017-11-08T04:30:17.549Z,101509.06
2017-11-08T04:32:45.179Z,101512.03
2017-11-08T04:35:12.664Z,101509.48
2017-11-08T04:37:40.191Z,101515.42
2017-11-08T04:40:07.855Z,101519.35
2017-11-08T04:42:40.217Z,101511.47
2017-11-08T04:45:07.740Z,101517.66
2017-11-08T04:47:35.227Z,101517.09
2017-11-08T04:50:02.804Z,101511.42
2017-11-08T04:52:30.356Z,101517.88
2017-11-08T04:54:57.852Z,101512.88
2017-11-08T04:57:25.339Z,101516.38
2017-11-08T04:59:52.860Z,101509.39
2017-11-08T05:02:20.355Z,101505.20
2017-11-08T05:04:47.851Z,101508.32
2017-11-08T05:07:15.408Z,101511.98
2017-11-08T05:09:42.901Z,101510.83
2017-11-08T05:12:10.391Z,101514.21
2017-11-08T05:14:37.930Z,101514.11
2017-11-08T05:17:05.439Z,101511.95
2017-11-08T05:19:32.932Z,101511.95
2017-11-08T05:22:00.456Z,101510.89
2017-11-08T05:24:28.015Z,101514.49
2017-11-08T05:26:55.677Z,101516.98
2017-11-08T05:29:23.176Z,101518.13
2017-11-08T05:31:51.193Z,101518.06
2017-11-08T05:34:18.872Z,101527.75
2017-11-08T05:36:46.435Z,101518.49
2017-11-08T05:39:13.984Z,101517.28
2017-11-08T05:41:41.512Z,101527.28
2017-11-08T05:44:09.108Z,101536.02
2017-11-08T05:46:36.621Z,101536.27
2017-11-08T05:49:04.268Z,101545.21
2017-11-08T05:51:31.763Z,101549.53
2017-11-08T05:53:59.251Z,101547.97
2017-11-08T05:56:26.911Z,101545.77
2017-11-08T05:58:54.411Z,101548.11
2017-11-08T06:01:21.906Z,101553.58
2017-11-08T06:03:49.479Z,101558.77
2017-11-08T06:06:16.970Z,101555.78
2017-11-08T06:08:44.467Z,101560.97
2017-11-08T06:11:12.073Z,101563.38
2017-11-08T06:13:39.608Z,101573.98
2017-11-08T06:16:07.184Z,101570.36
2017-11-08T06:18:34.832Z,101568.66
2017-11-08T06:21:02.396Z,101565.97
2017-11-08T06:23:29.891Z,101574.42
2017-11-08T06:25:57.417Z,101567.03
2017-11-08T06:28:24.912Z,101561.40
2017-11-08T06:30:52.408Z,101568.80
2017-11-08T06:33:20.011Z,101578.74
2017-11-08T06:35:47.499Z,101573.45
2017-11-08T06:38:15.023Z,101576.61
2017-11-08T06:40:42.512Z,101575.36
2017-11-08T06:43:10.013Z,101570.76
2017-11-08T06:45:37.600Z,101572.17
2017-11-08T06:48:05.092Z,101579.84
2017-11-08T06:50:33.420Z,101574.66
2017-11-08T06:53:01.797Z,101584.67
2017-11-08T06:55:30.063Z,101587.22
2017-11-08T06:57:57.625Z,101590.85
2017-11-08T07:00:25.121Z,101597.48
2017-11-08T07:02:52.607Z,101590.33
2017-11-08T07:05:20.300Z,101599.32
2017-11-08T07:07:47.792Z,101600.56
2017-11-08T07:10:15.293Z,101603.92
2017-11-08T07:12:42.836Z,101602.86
2017-11-08T07:15:10.333Z,101601.73
2017-11-08T07:17:37.828Z,101600.42
2017-11-08T07:20:05.335Z,101599.22
2017-11-08T07:22:32.920Z,101605.34
2017-11-08T07:25:00.460Z,101604.38
2017-11-08T07:27:28.032Z,101598.02
2017-11-08T07:29:55.592Z,101594.34
2017-11-08T07:32:23.272Z,101593.55
2017-11-08T07:34:50.816Z,101591.42
2017-11-08T07:37:18.314Z,101589.13
2017-11-08T07:39:45.832Z,101584.64
2017-11-08T07:42:13.354Z,101578.98
2017-11-08T07:44:40.943Z,101578.63
2017-11-08T07:47:08.431Z,101581.54
2017-11-08T07:49:36.071Z,101578.84
2017-11-08T07:52:10.286Z,101581.06
2017-11-08T07:54:37.835Z,101567.75
2017-11-08T07:57:05.328Z,101564.53
2017-11-08T07:59:38.684Z,101567.67
2017-11-08T08:02:06.260Z,101563.72
2017-11-08T08:04:33.813Z,101573.13
2017-11-08T08:07:01.328Z,101570.31
2017-11-08T08:09:45.515Z,101574.91
2017-11-08T08:12:13.032Z,101582.37
2017-11-08T08:14:40.556Z,101594.70
2017-11-08T08:17:08.044Z,101601.75
2017-11-08T08:19:36.675Z,101611.20
2017-11-08T08:22:04.167Z,101612.68
2017-11-08T08:24:31.648Z,101610.08
2017-11-08T08:27:04.764Z,101616.89
2017-11-08T08:29:32.319Z,101611.77
2017-11-08T08:31:59.808Z,101611.76
2017-11-08T08:34:27.338Z,101611.05
2017-11-08T08:36:54.833Z,101616.70
2017-11-08T08:39:22.334Z,101616.55
2017-11-08T08:41:49.864Z,101605.12
2017-11-08T08:44:17.407Z,101602.89
2017-11-08T08:46:44.905Z,101605.33
2017-11-08T08:49:12.643Z,101600.11
2017-11-08T08:51:40.132Z,101613.58
2017-11-08T08:54:07.633Z,101601.22
2017-11-08T08:56:35.180Z,101602.29
2017-11-08T08:59:02.681Z,101593.93
2017-11-08T09:01:30.172Z,101592.51
2017-11-08T09:03:57.732Z,101585.23
2017-11-08T09:06:25.328Z,101587.65
2017-11-08T09:08:52.820Z,101595.87
2017-11-08T09:11:20.343Z,101598.96
2017-11-08T09:13:47.895Z,101598.28
2017-11-08T09:16:15.396Z,101591.31
2017-11-08T09:18:42.911Z,101594.81
2017-11-08T09:21:10.405Z,101583.59
2017-11-08T09:23:38.847Z,101577.75
2017-11-08T09:26:06.336Z,101584.48
2017-11-08T09:28:33.825Z,101582.61
2017-11-08T09:31:01.427Z,101590.12
2017-11-08T09:33:29.079Z,101587.09
2017-11-08T09:35:56.568Z,101573.41
2017-11-08T09:38:24.105Z,101567.00
2017-11-08T09:40:51.609Z,101565.57
2017-11-08T09:43:21.919Z,101564.48
2017-11-08T09:45:49.435Z,101559.61
2017-11-08T09:48:16.947Z,101565.53
2017-11-08T09:50:44.484Z,101557.44
2017-11-08T09:53:12.023Z,101565.95
2017-11-08T09:55:39.529Z,101564.95
2017-11-08T09:58:08.933Z,101564.48
2017-11-08T10:00:36.469Z,101566.67
2017-11-08T10:03:03.958Z,101570.13
2017-11-08T10:05:31.452Z,101562.55
2017-11-08T10:07:58.984Z,101563.55
2017-11-08T10:10:30.305Z,101565.87
2017-11-08T10:13:03.426Z,101572.28
2017-11-08T10:15:30.917Z,101567.69
2017-11-08T10:17:58.415Z,101567.09
2017-11-08T10:20:25.996Z,101562.48
2017-11-08T10:22:53.481Z,101569.01
2017-11-08T10:25:20.968Z,101573.35
2017-11-08T10:27:48.503Z,101568.73
2017-11-08T10:30:16.083Z,101567.02
2017-11-08T10:32:43.572Z,101565.13
2017-11-08T10:35:11.075Z,101562.05
2017-11-08T10:37:38.635Z,101558.13
2017-11-08T10:40:06.124Z,101561.91
2017-11-08T10:42:33.586Z,101562.95
2017-11-08T10:45:01.121Z,101563.55
2017-11-08T10:47:28.616Z,101558.24
2017-11-08T10:49:56.117Z,101545.24
2017-11-08T10:52:23.644Z,101543.56
2017-11-08T10:54:51.134Z,101556.73
2017-11-08T10:57:18.675Z,101556.26
2017-11-08T10:59:51.224Z,101548.69
2017-11-08T11:02:19.423Z,101546.84
2017-11-08T11:04:47.710Z,101550.08
2017-11-08T11:07:15.250Z,101557.41
2017-11-08T11:09:42.741Z,101546.13
2017-11-08T11:12:10.240Z,101559.59
2017-11-08T11:14:37.765Z,101561.47
2017-11-08T11:17:05.257Z,101572.70
2017-11-08T11:19:32.852Z,101573.77
2017-11-08T11:22:02.143Z,101565.06
2017-11-08T11:24:33.532Z,101570.19
2017-11-08T11:27:07.413Z,101561.22
2017-11-08T11:29:34.903Z,101556.56
2017-11-08T11:32:02.528Z,101563.06
2017-11-08T11:34:30.028Z,101561.22
2017-11-08T11:36:57.523Z,101563.70
2017-11-08T11:39:25.112Z,101570.76
2017-11-08T11:41:52.601Z,101569.95
2017-11-08T11:44:20.171Z,101570.13
2017-11-08T11:46:47.828Z,101573.19
2017-11-08T11:49:15.318Z,101565.72
2017-11-08T11:51:42.910Z,101567.03
2017-11-08T11:54:10.469Z,101565.90
2017-11-08T12:12:29.585Z,101565.14
2017-11-08T12:14:57.082Z,101562.62
2017-11-08T12:17:24.578Z,101556.45
2017-11-08T12:19:52.319Z,101561.91
2017-11-08T12:22:19.816Z,101556.53
2017-11-08T12:24:47.316Z,101564.70
2017-11-08T12:27:14.836Z,101569.10
2017-11-08T12:29:42.325Z,101564.11
2017-11-08T12:32:09.904Z,101573.09
2017-11-08T12:34:39.416Z,101571.36
2017-11-08T12:37:06.973Z,101570.80
2017-11-08T12:39:34.466Z,101569.42
2017-11-08T12:42:03.920Z,101565.58
2017-11-08T12:47:34.789Z,101559.94
2017-11-08T12:50:02.292Z,101564.66
2017-11-08T12:52:29.789Z,101565.64
2017-11-08T12:54:57.340Z,101580.80
2017-11-08T12:57:24.832Z,101569.56
2017-11-08T12:59:52.323Z,101577.17
2017-11-08T13:02:20.046Z,101573.31
2017-11-08T13:04:47.543Z,101577.30
2017-11-08T13:07:15.028Z,101584.41
2017-11-08T13:09:42.563Z,101587.22
2017-11-08T13:12:10.061Z,101602.18
2017-11-08T13:14:37.560Z,101600.98
2017-11-08T13:17:05.081Z,101597.77
2017-11-08T13:19:32.560Z,101597.23
2017-11-08T13:22:00.116Z,101597.66
2017-11-08T13:24:27.649Z,101596.00
2017-11-08T13:26:55.136Z,101601.29
2017-11-08T13:29:22.629Z,101595.13
2017-11-08T13:31:50.164Z,101599.35
2017-11-08T13:34:17.653Z,101589.89
2017-11-08T13:36:45.368Z,101590.18
2017-11-08T13:39:12.857Z,101590.59
2017-11-08T13:41:40.386Z,101589.31
2017-11-08T13:44:07.900Z,101590.66
2017-11-08T13:46:35.504Z,101587.71
2017-11-08T13:49:03.038Z,101582.41
2017-11-08T13:51:30.534Z,101583.83
2017-11-08T13:53:58.079Z,101577.67
2017-11-08T13:56:25.630Z,101588.02
2017-11-08T13:58:53.127Z,101587.94
2017-11-08T14:01:20.633Z,101591.18
2017-11-08T14:03:48.181Z,101592.94
2017-11-08T14:06:15.677Z,101592.24
2017-11-08T14:08:43.168Z,101584.00
2017-11-08T14:11:10.891Z,101584.05
2017-11-08T14:13:38.471Z,101581.76
2017-11-08T14:16:05.966Z,101588.22
2017-11-08T14:18:33.501Z,101590.73
2017-11-08T14:21:00.992Z,101591.18
2017-11-08T14:23:28.481Z,101589.63
2017-11-08T14:25:55.996Z,101597.42
2017-11-08T14:28:23.487Z,101598.88
2017-11-08T14:30:50.983Z,101597.13
2017-11-08T14:33:18.626Z,101595.40
2017-11-08T14:35:46.116Z,101599.24
2017-11-08T14:38:13.608Z,101596.05
2017-11-08T14:40:41.132Z,101600.92
2017-11-08T14:43:08.621Z,101599.08
2017-11-08T14:45:36.121Z,101598.36
2017-11-08T14:48:03.661Z,101600.02
2017-11-08T14:50:31.149Z,101597.11
2017-11-08T14:53:04.220Z,101594.36
2017-11-08T14:55:31.719Z,101598.86
2017-11-08T14:57:59.242Z,101597.54
2017-11-08T15:00:26.777Z,101594.48
2017-11-08T15:02:54.348Z,101595.77
2017-11-08T15:05:21.914Z,101591.75
2017-11-08T15:07:49.472Z,101598.98
2017-11-08T15:10:16.972Z,101598.86
2017-11-08T15:12:45.265Z,101599.23
2017-11-08T15:15:15.577Z,101603.13
2017-11-08T15:17:44.931Z,101611.59
2017-11-08T15:20:18.154Z,101608.84
2017-11-08T15:22:45.645Z,101609.91
2017-11-08T15:25:13.147Z,101610.94
2017-11-08T15:27:40.801Z,101605.28
2017-11-08T15:30:08.298Z,101611.98
2017-11-08T15:32:36.704Z,101606.32
2017-11-08T15:35:04.347Z,101612.45
2017-11-08T15:37:31.836Z,101610.94
2017-11-08T15:39:59.325Z,101605.77
2017-11-08T15:42:26.852Z,101603.20
2017-11-08T15:44:54.341Z,101610.34
2017-11-08T15:47:21.834Z,101607.75
2017-11-08T15:49:49.377Z,101614.38
2017-11-08T15:52:16.870Z,101612.77
2017-11-08T15:54:44.363Z,101616.30
2017-11-08T15:57:11.888Z,101615.08
2017-11-08T15:59:39.378Z,101608.48
2017-11-08T16:02:06.880Z,101610.42
2017-11-08T16:04:34.411Z,101613.08
2017-11-08T16:07:01.956Z,101615.30
2017-11-08T16:09:29.521Z,101618.39
2017-11-08T16:11:57.056Z,101623.41
2017-11-08T16:14:24.546Z,101615.90
2017-11-08T16:16:52.045Z,101621.53
2017-11-08T16:19:19.585Z,101622.89
2017-11-08T16:21:47.127Z,101627.69
2017-11-08T16:24:16.425Z,101625.88
2017-11-08T16:26:43.954Z,101620.88
2017-11-08T16:29:11.547Z,101628.64
2017-11-08T16:31:39.074Z,101630.41
2017-11-08T16:34:06.565Z,101627.35
2017-11-08T16:36:34.052Z,101621.59
2017-11-08T16:39:01.659Z,101623.02
2017-11-08T16:41:29.148Z,101623.02
2017-11-08T16:43:56.648Z,101626.23
2017-11-08T16:46:24.285Z,101625.09
2017-11-08T16:48:51.798Z,101626.08
2017-11-08T16:51:19.284Z,101622.03
2017-11-08T16:53:46.815Z,101622.17
2017-11-08T16:56:14.310Z,101626.69
2017-11-08T16:58:41.846Z,101622.33
2017-11-08T17:01:09.333Z,101620.75
2017-11-08T17:03:36.830Z,101625.63
2017-11-08T17:06:04.358Z,101624.02
2017-11-08T17:08:31.849Z,101618.78
2017-11-08T17:10:59.341Z,101627.41
2017-11-08T17:13:26.861Z,101619.61
2017-11-08T17:15:54.356Z,101622.41
2017-11-08T17:18:21.844Z,101624.75
2017-11-08T17:20:49.366Z,101631.04
2017-11-08T17:23:16.913Z,101629.59
2017-11-08T17:25:44.404Z,101630.76
2017-11-08T17:28:11.963Z,101627.41
2017-11-08T17:30:39.481Z,101632.44
2017-11-08T17:33:06.973Z,101632.91
2017-11-08T17:35:34.493Z,101635.27
2017-11-08T17:38:01.992Z,101632.99
2017-11-08T17:40:29.484Z,101633.52
2017-11-08T17:42:57.073Z,101639.43
2017-11-08T17:45:24.646Z,101638.91
2017-11-08T17:47:52.136Z,101641.64
2017-11-08T17:50:19.753Z,101643.34
2017-11-08T17:52:47.255Z,101645.41
2017-11-08T17:55:14.744Z,101641.56
2017-11-08T17:57:42.273Z,101638.32
2017-11-08T18:00:09.760Z,101637.91
2017-11-08T18:02:37.349Z,101644.84
2017-11-08T18:05:04.873Z,101642.74
2017-11-08T18:07:32.374Z,101635.55
2017-11-08T18:09:59.868Z,101642.11
2017-11-08T18:12:27.477Z,101644.86
2017-11-08T18:14:54.972Z,101647.56
2017-11-08T18:17:22.515Z,101645.02
2017-11-08T18:19:50.007Z,101648.75
2017-11-08T18:22:17.610Z,101652.97
2017-11-08T18:24:45.159Z,101659.61
2017-11-08T18:27:12.736Z,101662.38
2017-11-08T18:29:40.224Z,101659.98
2017-11-08T18:32:07.924Z,101668.57
2017-11-08T18:34:35.419Z,101663.39
2017-11-08T18:37:02.990Z,101666.91
2017-11-08T18:39:30.500Z,101673.77
2017-11-08T18:41:58.102Z,101673.25
2017-11-08T18:44:25.600Z,101678.44
2017-11-08T18:46:53.092Z,101678.47
2017-11-08T18:49:20.627Z,101683.24
2017-11-08T18:51:48.229Z,101685.35
2017-11-08T18:54:15.722Z,101685.08
2017-11-08T18:56:43.266Z,101689.23
2017-11-08T18:59:10.766Z,101686.84
2017-11-08T19:01:38.333Z,101682.52
2017-11-08T19:04:05.862Z,101677.39
2017-11-08T19:06:33.410Z,101677.56
2017-11-08T19:09:00.941Z,101683.72
2017-11-08T19:11:28.514Z,101690.63
2017-11-08T19:13:56.034Z,101688.49
2017-11-08T19:16:23.528Z,101697.52
2017-11-08T19:18:51.076Z,101698.69
2017-11-08T19:21:18.595Z,101694.58
2017-11-08T19:23:46.126Z,101700.42
2017-11-08T19:26:13.624Z,101699.49
2017-11-08T19:28:41.124Z,101695.23
2017-11-08T19:31:08.669Z,101697.91
2017-11-08T19:33:36.169Z,101696.28
2017-11-08T19:36:03.671Z,101699.95
2017-11-08T19:38:31.198Z,101703.47
2017-11-08T19:40:58.693Z,101702.92
2017-11-08T19:43:26.271Z,101705.89
2017-11-08T19:45:53.806Z,101705.34
2017-11-08T19:48:21.378Z,101704.67
2017-11-08T19:50:48.869Z,101716.36
2017-11-08T19:53:16.485Z,101716.28
2017-11-08T19:55:43.993Z,101717.86
2017-11-08T19:58:11.518Z,101715.45
2017-11-08T20:00:39.140Z,101716.50
2017-11-08T20:03:06.737Z,101717.44
2017-11-08T20:05:34.336Z,101712.88
2017-11-08T20:08:01.909Z,101709.47
2017-11-08T20:10:29.435Z,101710.56
2017-11-08T20:12:56.938Z,101713.16
2017-11-08T20:15:24.485Z,101710.41
2017-11-08T20:17:52.104Z,101712.88
2017-11-08T20:20:19.662Z,101710.59
2017-11-08T20:22:47.181Z,101715.16
2017-11-08T20:25:14.712Z,101717.28
2017-11-08T20:27:42.201Z,101716.23
2017-11-08T20:30:09.751Z,101722.19
2017-11-08T20:32:37.394Z,101723.00
2017-11-08T20:35:04.882Z,101720.26
2017-11-08T20:37:32.394Z,101722.78
2017-11-08T20:39:59.915Z,101719.55
2017-11-08T20:42:27.409Z,101712.95
2017-11-08T20:44:54.935Z,101713.45
2017-11-08T20:47:22.473Z,101712.64
2017-11-08T20:49:49.972Z,101707.86
2017-11-08T20:52:17.513Z,101712.52
2017-11-08T20:54:45.085Z,101711.59
2017-11-08T20:57:12.577Z,101714.67
2017-11-08T20:59:40.077Z,101708.84
2017-11-08T21:02:07.589Z,101706.31
2017-11-08T21:04:35.076Z,101709.72
2017-11-08T21:07:02.602Z,101711.19
2017-11-08T21:09:30.115Z,101706.62
2017-11-08T21:11:57.654Z,101708.72
2017-11-08T21:14:25.147Z,101705.92
2017-11-08T21:16:52.655Z,101711.09
2017-11-08T21:19:20.369Z,101707.81
2017-11-08T21:21:47.873Z,101709.35
2017-11-08T21:24:15.367Z,101708.60
2017-11-08T21:26:42.945Z,101709.08
2017-11-08T21:29:10.481Z,101701.91
2017-11-08T21:31:38.054Z,101710.45
2017-11-08T21:34:05.545Z,101705.55
2017-11-08T21:36:33.167Z,101705.34
2017-11-08T21:39:00.655Z,101711.53
2017-11-08T21:41:28.147Z,101706.66
2017-11-08T21:43:55.677Z,101705.76
2017-11-08T21:46:23.205Z,101709.45
2017-11-08T21:48:51.152Z,101715.11
2017-11-08T21:51:18.669Z,101725.77
2017-11-08T21:53:46.223Z,101714.73
2017-11-08T21:56:13.724Z,101712.78
2017-11-08T21:58:41.215Z,101711.26
2017-11-08T22:01:08.734Z,101704.48
2017-11-08T22:03:36.227Z,101703.31
2017-11-08T22:06:03.783Z,101707.38
2017-11-08T22:08:31.341Z,101703.24
2017-11-08T22:10:58.835Z,101701.06
2017-11-08T22:13:26.367Z,101705.11
2017-11-08T22:15:53.853Z,101701.97
2017-11-08T22:18:21.340Z,101693.02
2017-11-08T22:20:49.742Z,101698.97
2017-11-08T22:23:17.241Z,101700.19
2017-11-08T22:25:44.778Z,101702.02
2017-11-08T22:28:12.417Z,101707.98
2017-11-08T22:30:39.911Z,101710.23
2017-11-08T22:33:07.467Z,101709.81
2017-11-08T22:35:35.084Z,101709.68
2017-11-08T22:38:02.576Z,101702.48
2017-11-08T22:40:30.069Z,101703.38
2017-11-08T22:42:57.613Z,101697.63
2017-11-08T22:45:25.105Z,101700.34
2017-11-08T22:47:52.591Z,101694.99
2017-11-08T22:50:20.137Z,101693.38
2017-11-08T22:52:47.709Z,101698.67
2017-11-08T22:55:15.270Z,101691.47
2017-11-08T22:57:42.798Z,101694.86
2017-11-08T23:00:10.302Z,101691.13
2017-11-08T23:02:37.794Z,101692.78
2017-11-08T23:05:05.416Z,101690.49
2017-11-08T23:07:32.969Z,101702.67
2017-11-08T23:10:00.453Z,101699.60
2017-11-08T23:12:27.995Z,101697.52
2017-11-08T23:14:55.533Z,101696.48
2017-11-08T23:17:23.033Z,101697.39
2017-11-08T23:19:50.757Z,101693.20
2017-11-08T23:22:18.251Z,101691.83
2017-11-08T23:24:45.746Z,101687.82
2017-11-08T23:27:13.272Z,101690.53
2017-11-08T23:29:40.761Z,101689.41
2017-11-08T23:32:08.257Z,101690.09
2017-11-08T23:34:35.804Z,101684.50
2017-11-08T23:37:03.369Z,101681.63
2017-11-08T23:39:30.926Z,101679.59
2017-11-08T23:41:58.445Z,101671.38
2017-11-08T23:44:26.045Z,101679.83
2017-11-08T23:46:53.540Z,101683.16
2017-11-08T23:49:21.073Z,101678.70
2017-11-08T23:51:48.613Z,101676.52
2017-11-08T23:54:16.176Z,101677.09
2017-11-08T23:56:43.721Z,101672.75
2017-11-08T23:59:16.833Z,101682.54
